createdAt,value
2018-03-25T00:03:03.512Z,0.90
2018-03-25T00:07:37.864Z,0.80
2018-03-25T00:12:12.272Z,0.70
2018-03-25T00:16:45.915Z,0.80
2018-03-25T00:21:19.425Z,0.70
2018-03-25T00:25:53.350Z,0.60
2018-03-25T00:30:26.858Z,0.60
2018-03-25T00:35:00.310Z,0.50
2018-03-25T00:39:34.015Z,0.50
2018-03-25T00:44:07.635Z,0.50
2018-03-25T00:48:42.086Z,0.60
2018-03-25T00:53:15.595Z,0.60
2018-03-25T00:57:49.112Z,0.50
2018-03-25T01:02:22.779Z,0.50
2018-03-25T01:06:56.218Z,0.40
2018-03-25T01:11:29.648Z,0.40
2018-03-25T01:16:10.728Z,0.20
2018-03-25T01:20:44.313Z,0.40
2018-03-25T01:25:18.256Z,0.40
2018-03-25T01:29:51.758Z,0.40
2018-03-25T01:34:25.310Z,0.30
2018-03-25T01:38:58.873Z,0.30
2018-03-25T01:43:33.009Z,0.10
2018-03-25T01:48:07.137Z,0.00
2018-03-25T01:52:41.371Z,-0.20
2018-03-25T01:57:14.876Z,-0.30
2018-03-25T02:01:49.239Z,-0.30
2018-03-25T02:06:23.234Z,-0.40
2018-03-25T02:10:58.233Z,-0.40
2018-03-25T02:15:31.532Z,-0.40
2018-03-25T02:20:05.218Z,-0.20
2018-03-25T02:24:39.210Z,0.00
2018-03-25T02:29:12.999Z,0.00
2018-03-25T02:33:46.488Z,-0.20
2018-03-25T02:38:20.109Z,-0.30
2018-03-25T02:42:54.269Z,-0.40
2018-03-25T02:47:28.183Z,-0.50
2018-03-25T02:52:01.890Z,-0.40
2018-03-25T02:56:35.381Z,-0.20
2018-03-25T03:01:09.063Z,-0.40
2018-03-25T03:05:42.711Z,-0.40
2018-03-25T03:10:16.123Z,-0.50
2018-03-25T03:14:49.669Z,-0.60
2018-03-25T03:19:23.970Z,-0.70
2018-03-25T03:23:57.540Z,-0.70
2018-03-25T03:28:31.101Z,-0.70
2018-03-25T03:33:04.439Z,-0.70
2018-03-25T03:37:38.649Z,-0.60
2018-03-25T03:42:12.267Z,-0.60
2018-03-25T03:46:45.581Z,-0.70
2018-03-25T03:51:19.059Z,-0.80
2018-03-25T03:55:53.180Z,-0.80
2018-03-25T04:00:26.576Z,-0.90
2018-03-25T04:05:00.881Z,-0.90
2018-03-25T04:09:34.373Z,-1.00
2018-03-25T04:14:07.773Z,-0.80
2018-03-25T04:18:41.820Z,-0.90
2018-03-25T04:23:15.104Z,-0.90
2018-03-25T04:27:49.949Z,-0.90
2018-03-25T04:32:24.183Z,-0.80
2018-03-25T04:36:57.830Z,-0.90
2018-03-25T04:41:31.213Z,-0.80
2018-03-25T04:46:05.254Z,-0.90
2018-03-25T04:50:38.711Z,-1.00
2018-03-25T04:55:12.089Z,-1.10
2018-03-25T04:59:45.404Z,-1.30
2018-03-25T05:04:18.647Z,-1.30
2018-03-25T05:08:52.623Z,-1.20
2018-03-25T05:13:26.037Z,-1.20
2018-03-25T05:18:00.247Z,-1.30
2018-03-25T05:22:33.554Z,-1.30
2018-03-25T05:27:07.707Z,-1.40
2018-03-25T05:31:41.780Z,-1.50
2018-03-25T05:36:16.673Z,-1.50
2018-03-25T05:40:50.954Z,-1.30
2018-03-25T05:45:24.507Z,-1.40
2018-03-25T05:49:58.954Z,-1.40
2018-03-25T05:54:33.115Z,-1.40
2018-03-25T05:59:06.755Z,-1.30
2018-03-25T06:03:40.309Z,-1.40
2018-03-25T06:08:13.937Z,-1.30
2018-03-25T06:12:47.431Z,-1.00
2018-03-25T06:17:21.228Z,-0.80
2018-03-25T06:21:55.304Z,-0.50
2018-03-25T06:26:28.999Z,-0.40
2018-03-25T06:31:02.560Z,-0.10
2018-03-25T06:35:36.140Z,0.20
2018-03-25T06:40:10.190Z,0.30
2018-03-25T06:44:43.869Z,0.50
2018-03-25T06:49:18.044Z,0.60
2018-03-25T06:53:52.307Z,0.50
2018-03-25T06:58:26.354Z,0.90
2018-03-25T07:03:05.703Z,1.30
2018-03-25T07:07:44.965Z,1.50
2018-03-25T07:12:23.945Z,1.80
2018-03-25T07:17:03.051Z,2.20
2018-03-25T07:21:42.356Z,2.40
2018-03-25T07:26:21.666Z,3.20
2018-03-25T07:31:02.242Z,4.50
2018-03-25T07:35:41.298Z,4.40
2018-03-25T07:40:14.908Z,5.40
2018-03-25T07:44:48.787Z,6.10
2018-03-25T07:49:28.055Z,7.00
2018-03-25T07:54:02.651Z,8.40
2018-03-25T07:58:36.687Z,8.90
2018-03-25T08:03:10.051Z,9.50
2018-03-25T08:07:43.759Z,10.60
2018-03-25T08:12:18.081Z,10.50
2018-03-25T08:16:51.599Z,12.30
2018-03-25T08:21:25.241Z,13.30
2018-03-25T08:25:59.041Z,13.70
2018-03-25T08:30:33.274Z,13.20
2018-03-25T08:35:06.876Z,13.10
2018-03-25T08:39:41.185Z,12.60
2018-03-25T08:44:15.558Z,13.90
2018-03-25T08:48:49.158Z,13.90
2018-03-25T08:53:28.418Z,14.30
2018-03-25T08:58:02.951Z,14.40
2018-03-25T09:02:42.088Z,14.70
2018-03-25T09:07:16.838Z,14.20
2018-03-25T09:11:50.252Z,14.20
2018-03-25T09:16:25.109Z,15.30
2018-03-25T09:20:58.521Z,15.20
2018-03-25T09:25:31.916Z,16.00
2018-03-25T09:30:06.178Z,18.60
2018-03-25T09:34:39.757Z,18.50
2018-03-25T09:39:13.929Z,18.00
2018-03-25T09:43:47.213Z,17.90
2018-03-25T09:48:20.614Z,17.20
2018-03-25T09:52:54.052Z,17.10
2018-03-25T09:57:27.532Z,17.10
2018-03-25T10:02:04.632Z,18.60
2018-03-25T10:06:38.105Z,18.50
2018-03-25T10:11:11.507Z,18.80
2018-03-25T10:15:45.492Z,20.50
2018-03-25T10:20:19.758Z,19.10
2018-03-25T10:24:53.384Z,20.40
2018-03-25T10:29:28.589Z,17.40
2018-03-25T10:34:02.829Z,17.80
2018-03-25T10:38:36.149Z,17.80
2018-03-25T10:43:09.586Z,18.20
2018-03-25T10:47:42.992Z,19.00
2018-03-25T10:52:16.402Z,19.80
2018-03-25T10:56:49.826Z,19.90
2018-03-25T11:01:23.968Z,20.90
2018-03-25T11:05:58.126Z,19.70
2018-03-25T11:10:32.412Z,20.60
2018-03-25T11:15:05.469Z,20.50
2018-03-25T11:19:38.852Z,22.10
2018-03-25T11:24:13.835Z,19.80
2018-03-25T11:28:47.497Z,19.70
2018-03-25T11:33:20.839Z,20.80
2018-03-25T11:37:56.110Z,22.00
2018-03-25T11:42:29.954Z,21.20
2018-03-25T11:47:03.542Z,20.70
2018-03-25T11:51:37.060Z,20.80
2018-03-25T11:56:10.988Z,19.90
2018-03-25T12:00:44.498Z,19.40
2018-03-25T12:05:18.476Z,19.00
2018-03-25T12:09:51.869Z,18.20
2018-03-25T12:14:25.753Z,18.60
2018-03-25T12:18:59.265Z,17.80
2018-03-25T12:23:32.890Z,18.60
2018-03-25T12:28:06.268Z,19.30
2018-03-25T12:32:39.834Z,19.50
2018-03-25T12:37:13.366Z,19.30
2018-03-25T12:41:46.665Z,19.50
2018-03-25T12:46:20.038Z,20.40
2018-03-25T12:50:54.375Z,21.50
2018-03-25T12:55:28.512Z,20.70
2018-03-25T13:00:01.839Z,20.70
2018-03-25T13:04:35.264Z,20.60
2018-03-25T13:09:08.934Z,21.00
2018-03-25T13:13:42.559Z,21.90
2018-03-25T13:18:17.349Z,22.20
2018-03-25T13:22:50.751Z,21.10
2018-03-25T13:27:24.075Z,20.30
2018-03-25T13:31:57.965Z,19.70
2018-03-25T13:36:32.062Z,19.80
2018-03-25T13:41:06.145Z,21.70
2018-03-25T13:45:39.451Z,21.60
2018-03-25T13:50:12.875Z,22.00
2018-03-25T13:54:46.237Z,21.50
2018-03-25T13:59:20.354Z,21.00
2018-03-25T14:03:54.416Z,19.00
2018-03-25T14:08:27.738Z,18.90
2018-03-25T14:13:01.135Z,18.30
2018-03-25T14:17:34.788Z,18.30
2018-03-25T14:22:08.170Z,19.30
2018-03-25T14:26:42.220Z,17.60
2018-03-25T14:31:15.678Z,17.10
2018-03-25T14:35:49.805Z,16.90
2018-03-25T14:40:23.817Z,16.60
2018-03-25T14:44:57.503Z,16.50
2018-03-25T14:49:31.083Z,17.30
2018-03-25T14:54:04.360Z,17.90
2018-03-25T14:58:38.972Z,17.90
2018-03-25T15:03:12.264Z,17.80
2018-03-25T15:07:45.560Z,17.40
2018-03-25T15:12:19.531Z,17.30
2018-03-25T15:16:52.832Z,17.20
2018-03-25T15:21:26.790Z,17.00
2018-03-25T15:26:01.262Z,16.70
2018-03-25T15:30:34.869Z,16.70
2018-03-25T15:35:08.176Z,16.30
2018-03-25T15:39:41.446Z,16.00
2018-03-25T15:44:14.973Z,15.90
2018-03-25T15:48:48.281Z,16.10
2018-03-25T15:53:22.408Z,15.70
2018-03-25T15:57:56.466Z,15.60
2018-03-25T16:02:29.892Z,15.60
2018-03-25T16:07:03.186Z,15.50
2018-03-25T16:11:36.668Z,15.30
2018-03-25T16:16:11.651Z,14.80
2018-03-25T16:20:45.055Z,14.80
2018-03-25T16:25:18.440Z,14.70
2018-03-25T16:29:52.473Z,14.60
2018-03-25T16:34:26.518Z,14.40
2018-03-25T16:38:59.904Z,14.30
2018-03-25T16:43:34.348Z,14.30
2018-03-25T16:48:07.628Z,14.20
2018-03-25T16:52:40.897Z,14.20
2018-03-25T16:57:14.305Z,14.10
2018-03-25T17:01:48.264Z,14.10
2018-03-25T17:06:21.538Z,13.90
2018-03-25T17:10:55.139Z,13.90
2018-03-25T17:15:28.420Z,13.60
2018-03-25T17:20:02.555Z,13.40
2018-03-25T17:24:36.615Z,13.30
2018-03-25T17:29:10.249Z,13.20
2018-03-25T17:33:44.232Z,13.10
2018-03-25T17:38:17.636Z,12.80
2018-03-25T17:42:51.878Z,11.90
2018-03-25T17:47:25.378Z,11.80
2018-03-25T17:51:59.424Z,11.60
2018-03-25T17:56:32.700Z,11.50
2018-03-25T18:01:07.212Z,11.00
2018-03-25T18:05:40.700Z,10.90
2018-03-25T18:10:14.004Z,10.60
2018-03-25T18:14:47.416Z,10.30
2018-03-25T18:19:20.706Z,10.00
2018-03-25T18:23:54.725Z,9.60
2018-03-25T18:28:28.754Z,9.40
2018-03-25T18:33:02.191Z,9.30
2018-03-25T18:37:35.675Z,9.30
2018-03-25T18:42:08.989Z,9.20
2018-03-25T18:46:42.222Z,9.10
2018-03-25T18:51:15.521Z,8.60
2018-03-25T18:55:48.830Z,8.00
2018-03-25T19:00:22.217Z,7.90
2018-03-25T19:04:56.448Z,7.90
2018-03-25T19:09:31.183Z,8.00
2018-03-25T19:14:05.234Z,7.70
2018-03-25T19:18:38.861Z,7.70
2018-03-25T19:23:12.145Z,7.70
2018-03-25T19:27:46.148Z,7.70
2018-03-25T19:32:19.449Z,7.70
2018-03-25T19:36:53.602Z,7.70
2018-03-25T19:41:28.702Z,7.40
2018-03-25T19:46:02.061Z,7.30
2018-03-25T19:50:36.192Z,7.40
2018-03-25T19:55:10.528Z,7.40
2018-03-25T19:59:43.842Z,7.40
2018-03-25T20:04:18.166Z,7.50
2018-03-25T20:08:52.506Z,7.50
2018-03-25T20:13:26.016Z,7.40
2018-03-25T20:18:00.704Z,7.00
2018-03-25T20:22:34.181Z,6.90
2018-03-25T20:27:08.718Z,7.10
2018-03-25T20:31:42.344Z,7.10
2018-03-25T20:36:15.689Z,7.10
2018-03-25T20:40:49.109Z,7.30
2018-03-25T20:45:22.767Z,7.30
2018-03-25T20:49:56.852Z,7.40
2018-03-25T20:54:30.924Z,7.50
2018-03-25T20:59:04.236Z,7.40
2018-03-25T21:03:37.639Z,7.50
2018-03-25T21:08:11.973Z,7.50
2018-03-25T21:12:45.888Z,7.50
2018-03-25T21:17:19.964Z,6.90
2018-03-25T21:21:54.768Z,6.80
2018-03-25T21:26:28.770Z,7.00
2018-03-25T21:31:02.142Z,7.10
2018-03-25T21:35:35.716Z,7.20
2018-03-25T21:40:09.845Z,6.90
2018-03-25T21:44:43.909Z,7.00
2018-03-25T21:49:17.878Z,6.90
2018-03-25T21:53:51.815Z,6.90
2018-03-25T21:58:25.866Z,6.80
2018-03-25T22:02:59.177Z,6.80
2018-03-25T22:07:32.564Z,6.80
2018-03-25T22:12:06.633Z,7.20
2018-03-25T22:16:39.904Z,7.10
2018-03-25T22:21:14.260Z,7.20
2018-03-25T22:25:48.560Z,7.10
2018-03-25T22:30:22.862Z,7.00
2018-03-25T22:34:56.821Z,6.90
2018-03-25T22:39:30.862Z,6.80
2018-03-25T22:44:04.924Z,6.70
2018-03-25T22:48:38.396Z,6.70
2018-03-25T22:53:13.336Z,6.80
2018-03-25T22:57:47.373Z,6.60
2018-03-25T23:02:20.682Z,6.50
2018-03-25T23:06:54.428Z,6.30
2018-03-25T23:11:28.035Z,6.30
2018-03-25T23:16:01.735Z,6.40
2018-03-25T23:20:35.830Z,5.70
2018-03-25T23:25:09.165Z,5.70
2018-03-25T23:29:43.211Z,5.50
2018-03-25T23:34:16.472Z,5.40
2018-03-25T23:38:50.063Z,5.20
2018-03-25T23:43:23.328Z,5.10
2018-03-25T23:47:58.270Z,5.00
2018-03-25T23:52:32.279Z,4.90
2018-03-25T23:57:06.235Z,4.90
